Terminal Aerodrome Forecast
Issued by NWS Shreveport, LA

Current Version | Previous Version | Text Only | Print | Product List | Glossary On
Versions: 1 2 3 4 5 6 7 8 9 10 11 12 13 14 15 16 17 18
000
FTUS44 KSHV 030539
TAFSHV
TAF
KSHV 030539Z 0306/0406 21008KT P6SM OVC300
     FM031200 21004KT P6SM SCT120 SCT150 OVC250
      TEMPO 0312/0315 BKN010
     FM031500 24011G18KT P6SM SCT025 BKN150 OVC250
     FM031800 21007KT P6SM VCTS SCT050CB
     FM032200 26007KT 6SM -TSRA BKN045CB
     FM040000 25005KT P6SM SCT250=

USA.gov is the U.S. government's official web portal to all federal, state and local government web resources and services.